sensor_id;sensor_type;location;lat;lon;timestamp;pressure;altitude;pressure_sealevel;temperature;humidity
61337;BME280;47212;41.326;2.104;2024-02-21T00:03:37;102581.34;;;13.20;71.84
61337;BME280;47212;41.326;2.104;2024-02-21T00:09:01;102579.91;;;13.17;72.32
61337;BME280;47212;41.326;2.104;2024-02-21T00:14:10;102577.03;;;13.12;72.09
61337;BME280;47212;41.326;2.104;2024-02-21T00:19:18;102568.69;;;13.07;72.22
61337;BME280;47212;41.326;2.104;2024-02-21T00:24:29;102562.47;;;13.00;72.55
61337;BME280;47212;41.326;2.104;2024-02-21T00:29:34;102564.84;;;12.96;72.54
61337;BME280;47212;41.326;2.104;2024-02-21T00:34:50;102554.59;;;12.92;73.26
61337;BME280;47212;41.326;2.104;2024-02-21T00:40:08;102545.69;;;12.85;74.33
61337;BME280;47212;41.326;2.104;2024-02-21T00:45:20;102542.81;;;12.80;74.18
61337;BME280;47212;41.326;2.104;2024-02-21T00:50:29;102545.41;;;12.74;74.27
61337;BME280;47212;41.326;2.104;2024-02-21T00:55:40;102539.22;;;12.67;74.98
61337;BME280;47212;41.326;2.104;2024-02-21T01:00:46;102530.66;;;12.64;75.12
61337;BME280;47212;41.326;2.104;2024-02-21T01:06:00;102523.75;;;12.61;75.61
61337;BME280;47212;41.326;2.104;2024-02-21T01:11:16;102517.53;;;12.54;74.97
61337;BME280;47212;41.326;2.104;2024-02-21T01:16:23;102520.75;;;12.51;75.29
61337;BME280;47212;41.326;2.104;2024-02-21T01:21:39;102531.06;;;12.49;75.85
61337;BME280;47212;41.326;2.104;2024-02-21T01:26:43;102516.56;;;12.49;76.06
61337;BME280;47212;41.326;2.104;2024-02-21T01:31:58;102524.41;;;12.45;76.26
61337;BME280;47212;41.326;2.104;2024-02-21T01:37:05;102518.56;;;12.41;75.83
61337;BME280;47212;41.326;2.104;2024-02-21T01:42:11;102518.19;;;12.38;76.07
61337;BME280;47212;41.326;2.104;2024-02-21T01:47:15;102506.66;;;12.36;76.15
61337;BME280;47212;41.326;2.104;2024-02-21T01:52:39;102515.31;;;12.33;77.54
61337;BME280;47212;41.326;2.104;2024-02-21T01:57:44;102506.53;;;12.31;77.39
61337;BME280;47212;41.326;2.104;2024-02-21T02:05:33;102508.66;;;12.29;78.17
61337;BME280;47212;41.326;2.104;2024-02-21T02:10:43;102495.34;;;12.21;77.73
61337;BME280;47212;41.326;2.104;2024-02-21T02:15:52;102496.84;;;12.17;77.48
61337;BME280;47212;41.326;2.104;2024-02-21T02:20:59;102487.44;;;12.12;78.24
61337;BME280;47212;41.326;2.104;2024-02-21T02:26:07;102484.56;;;12.07;77.69
61337;BME280;47212;41.326;2.104;2024-02-21T02:31:12;102480.00;;;12.01;78.66
61337;BME280;47212;41.326;2.104;2024-02-21T02:36:32;102466.84;;;11.98;78.83
61337;BME280;47212;41.326;2.104;2024-02-21T02:41:48;102464.09;;;11.98;78.61
61337;BME280;47212;41.326;2.104;2024-02-21T02:46:56;102450.53;;;11.92;78.77
61337;BME280;47212;41.326;2.104;2024-02-21T02:52:14;102457.06;;;11.91;79.66
61337;BME280;47212;41.326;2.104;2024-02-21T02:57:23;102465.47;;;11.89;78.72
61337;BME280;47212;41.326;2.104;2024-02-21T03:02:30;102446.84;;;11.86;79.35
61337;BME280;47212;41.326;2.104;2024-02-21T03:07:40;102437.00;;;11.85;79.32
61337;BME280;47212;41.326;2.104;2024-02-21T03:12:50;102428.19;;;11.83;79.37
61337;BME280;47212;41.326;2.104;2024-02-21T03:18:14;102433.06;;;11.81;79.10
61337;BME280;47212;41.326;2.104;2024-02-21T03:23:21;102439.13;;;11.83;79.77
61337;BME280;47212;41.326;2.104;2024-02-21T03:28:36;102422.13;;;11.81;80.13
61337;BME280;47212;41.326;2.104;2024-02-21T03:33:56;102415.03;;;11.80;79.39
61337;BME280;47212;41.326;2.104;2024-02-21T03:39:06;102405.16;;;11.79;79.83
61337;BME280;47212;41.326;2.104;2024-02-21T03:44:27;102404.75;;;11.75;79.74
61337;BME280;47212;41.326;2.104;2024-02-21T03:49:39;102399.38;;;11.69;79.09
61337;BME280;47212;41.326;2.104;2024-02-21T03:54:55;102398.63;;;11.62;78.96
61337;BME280;47212;41.326;2.104;2024-02-21T04:00:00;102405.00;;;11.56;79.18
61337;BME280;47212;41.326;2.104;2024-02-21T04:05:09;102405.47;;;11.53;78.95
61337;BME280;47212;41.326;2.104;2024-02-21T04:10:21;102402.38;;;11.49;79.11
61337;BME280;47212;41.326;2.104;2024-02-21T04:15:36;102396.53;;;11.45;78.56
61337;BME280;47212;41.326;2.104;2024-02-21T04:20:43;102399.94;;;11.41;78.58
61337;BME280;47212;41.326;2.104;2024-02-21T04:25:51;102409.88;;;11.35;78.22
61337;BME280;47212;41.326;2.104;2024-02-21T04:30:57;102413.28;;;11.31;78.94
61337;BME280;47212;41.326;2.104;2024-02-21T04:36:04;102426.53;;;11.27;78.85
61337;BME280;47212;41.326;2.104;2024-02-21T04:41:11;102422.94;;;11.27;78.28
61337;BME280;47212;41.326;2.104;2024-02-21T04:46:19;102433.00;;;11.26;78.73
61337;BME280;47212;41.326;2.104;2024-02-21T04:51:31;102436.78;;;11.25;78.69
61337;BME280;47212;41.326;2.104;2024-02-21T04:56:43;102428.84;;;11.24;79.50
61337;BME280;47212;41.326;2.104;2024-02-21T05:08:46;102451.94;;;11.21;79.01
61337;BME280;47212;41.326;2.104;2024-02-21T05:13:56;102464.94;;;11.19;79.63
61337;BME280;47212;41.326;2.104;2024-02-21T05:19:11;102465.78;;;11.20;78.73
61337;BME280;47212;41.326;2.104;2024-02-21T05:24:26;102457.00;;;11.17;79.14
61337;BME280;47212;41.326;2.104;2024-02-21T05:29:38;102460.56;;;11.18;79.36
61337;BME280;47212;41.326;2.104;2024-02-21T05:34:50;102460.31;;;11.20;79.26
61337;BME280;47212;41.326;2.104;2024-02-21T05:40:05;102443.13;;;11.19;79.28
61337;BME280;47212;41.326;2.104;2024-02-21T05:45:12;102428.44;;;11.20;79.17
61337;BME280;47212;41.326;2.104;2024-02-21T05:50:22;102419.44;;;11.20;79.06
61337;BME280;47212;41.326;2.104;2024-02-21T05:55:31;102411.50;;;11.18;78.50
61337;BME280;47212;41.326;2.104;2024-02-21T06:00:39;102413.00;;;11.14;78.27
61337;BME280;47212;41.326;2.104;2024-02-21T06:05:45;102401.94;;;11.09;78.50
61337;BME280;47212;41.326;2.104;2024-02-21T06:10:53;102398.00;;;11.05;78.43
61337;BME280;47212;41.326;2.104;2024-02-21T06:16:05;102394.06;;;11.01;78.34
61337;BME280;47212;41.326;2.104;2024-02-21T06:21:21;102402.69;;;10.98;77.80
61337;BME280;47212;41.326;2.104;2024-02-21T06:26:30;102405.03;;;10.94;78.29
61337;BME280;47212;41.326;2.104;2024-02-21T06:31:37;102416.38;;;10.91;77.60
61337;BME280;47212;41.326;2.104;2024-02-21T06:36:49;102431.72;;;10.85;77.82
61337;BME280;47212;41.326;2.104;2024-02-21T06:42:04;102441.56;;;10.87;77.21
61337;BME280;47212;41.326;2.104;2024-02-21T06:47:12;102447.69;;;10.82;77.08
61337;BME280;47212;41.326;2.104;2024-02-21T06:52:20;102451.25;;;10.82;76.85
61337;BME280;47212;41.326;2.104;2024-02-21T06:57:28;102449.75;;;10.87;77.22
61337;BME280;47212;41.326;2.104;2024-02-21T07:02:48;102449.50;;;10.88;76.96
61337;BME280;47212;41.326;2.104;2024-02-21T07:07:55;102445.72;;;10.89;76.52
61337;BME280;47212;41.326;2.104;2024-02-21T07:13:02;102443.41;;;10.93;77.02
61337;BME280;47212;41.326;2.104;2024-02-21T07:18:32;102439.16;;;10.97;76.70
61337;BME280;47212;41.326;2.104;2024-02-21T07:23:41;102451.59;;;11.11;76.82
61337;BME280;47212;41.326;2.104;2024-02-21T07:28:50;102452.97;;;11.20;76.63
61337;BME280;47212;41.326;2.104;2024-02-21T07:33:54;102459.22;;;11.27;75.96
61337;BME280;47212;41.326;2.104;2024-02-21T07:39:01;102459.31;;;11.39;75.83
61337;BME280;47212;41.326;2.104;2024-02-21T07:44:10;102475.47;;;11.59;75.03
61337;BME280;47212;41.326;2.104;2024-02-21T07:49:27;102472.31;;;11.80;74.10
61337;BME280;47212;41.326;2.104;2024-02-21T07:54:33;102469.31;;;12.48;72.51
61337;BME280;47212;41.326;2.104;2024-02-21T07:59:40;102472.88;;;13.72;69.18
61337;BME280;47212;41.326;2.104;2024-02-21T08:04:50;102470.97;;;14.41;67.58
61337;BME280;47212;41.326;2.104;2024-02-21T08:10:04;102485.28;;;15.22;65.43
61337;BME280;47212;41.326;2.104;2024-02-21T08:15:29;102497.91;;;15.06;64.89
61337;BME280;47212;41.326;2.104;2024-02-21T08:20:36;102507.66;;;14.97;66.40
61337;BME280;47212;41.326;2.104;2024-02-21T08:25:43;102508.97;;;14.78;67.01
61337;BME280;47212;41.326;2.104;2024-02-21T08:30:50;102512.13;;;15.20;67.26
61337;BME280;47212;41.326;2.104;2024-02-21T08:35:58;102510.69;;;15.51;66.78
61337;BME280;47212;41.326;2.104;2024-02-21T08:41:04;102513.59;;;15.78;65.70
61337;BME280;47212;41.326;2.104;2024-02-21T08:46:11;102519.31;;;15.76;65.57
61337;BME280;47212;41.326;2.104;2024-02-21T08:51:18;102506.75;;;16.02;65.60
61337;BME280;47212;41.326;2.104;2024-02-21T08:56:26;102504.84;;;16.51;64.97
61337;BME280;47212;41.326;2.104;2024-02-21T09:01:41;102506.78;;;17.10;63.48
61337;BME280;47212;41.326;2.104;2024-02-21T09:06:56;102491.47;;;17.61;62.18
61337;BME280;47212;41.326;2.104;2024-02-21T09:12:02;102486.16;;;17.97;60.87
61337;BME280;47212;41.326;2.104;2024-02-21T09:17:12;102473.88;;;18.25;60.20
61337;BME280;47212;41.326;2.104;2024-02-21T09:22:21;102473.63;;;18.52;60.63
61337;BME280;47212;41.326;2.104;2024-02-21T09:27:27;102466.47;;;18.61;61.92
61337;BME280;47212;41.326;2.104;2024-02-21T09:32:35;102467.00;;;18.48;62.59
61337;BME280;47212;41.326;2.104;2024-02-21T09:37:51;102454.84;;;18.33;63.05
61337;BME280;47212;41.326;2.104;2024-02-21T09:43:08;102443.31;;;18.57;62.81
61337;BME280;47212;41.326;2.104;2024-02-21T09:48:29;102440.31;;;18.78;61.95
61337;BME280;47212;41.326;2.104;2024-02-21T09:53:37;102441.69;;;18.81;61.99
61337;BME280;47212;41.326;2.104;2024-02-21T09:59:22;102457.13;;;18.82;61.18
61337;BME280;47212;41.326;2.104;2024-02-21T10:04:33;102441.13;;;18.64;61.36
61337;BME280;47212;41.326;2.104;2024-02-21T10:09:40;102449.94;;;18.61;61.14
61337;BME280;47212;41.326;2.104;2024-02-21T10:14:45;102454.09;;;18.68;60.98
61337;BME280;47212;41.326;2.104;2024-02-21T10:20:09;102457.69;;;18.69;59.81
61337;BME280;47212;41.326;2.104;2024-02-21T10:25:37;102448.84;;;18.62;59.37
61337;BME280;47212;41.326;2.104;2024-02-21T10:30:52;102445.78;;;18.58;60.70
61337;BME280;47212;41.326;2.104;2024-02-21T10:36:10;102439.72;;;18.41;62.22
61337;BME280;47212;41.326;2.104;2024-02-21T10:41:23;102436.13;;;18.35;62.65
61337;BME280;47212;41.326;2.104;2024-02-21T10:46:29;102449.56;;;18.17;61.25
61337;BME280;47212;41.326;2.104;2024-02-21T10:51:43;102437.13;;;18.09;62.55
61337;BME280;47212;41.326;2.104;2024-02-21T10:56:52;102428.06;;;18.13;63.17
61337;BME280;47212;41.326;2.104;2024-02-21T11:01:56;102435.50;;;18.18;63.27
61337;BME280;47212;41.326;2.104;2024-02-21T11:07:03;102434.38;;;18.04;63.80
61337;BME280;47212;41.326;2.104;2024-02-21T11:12:20;102417.59;;;18.15;63.79
61337;BME280;47212;41.326;2.104;2024-02-21T11:17:34;102434.72;;;18.28;61.14
61337;BME280;47212;41.326;2.104;2024-02-21T11:22:54;102426.19;;;18.39;59.47
61337;BME280;47212;41.326;2.104;2024-02-21T11:28:04;102399.44;;;18.35;57.39
61337;BME280;47212;41.326;2.104;2024-02-21T11:33:33;102378.22;;;18.25;56.17
61337;BME280;47212;41.326;2.104;2024-02-21T11:38:42;102375.44;;;18.20;57.45
61337;BME280;47212;41.326;2.104;2024-02-21T11:43:51;102369.63;;;18.11;58.70
61337;BME280;47212;41.326;2.104;2024-02-21T11:48:56;102357.19;;;17.94;59.79
61337;BME280;47212;41.326;2.104;2024-02-21T11:54:08;102351.19;;;18.22;59.73
61337;BME280;47212;41.326;2.104;2024-02-21T11:59:14;102346.78;;;18.31;59.97
61337;BME280;47212;41.326;2.104;2024-02-21T12:04:26;102329.69;;;18.34;60.32
61337;BME280;47212;41.326;2.104;2024-02-21T12:09:44;102325.84;;;18.40;60.08
61337;BME280;47212;41.326;2.104;2024-02-21T12:15:00;102319.50;;;18.45;59.36
61337;BME280;47212;41.326;2.104;2024-02-21T12:20:17;102303.50;;;18.62;59.12
61337;BME280;47212;41.326;2.104;2024-02-21T12:25:24;102297.16;;;18.41;58.93
61337;BME280;47212;41.326;2.104;2024-02-21T12:30:47;102286.69;;;18.43;58.90
61337;BME280;47212;41.326;2.104;2024-02-21T12:35:57;102293.84;;;18.50;59.43
61337;BME280;47212;41.326;2.104;2024-02-21T12:41:02;102285.56;;;18.65;59.34
61337;BME280;47212;41.326;2.104;2024-02-21T12:46:17;102288.59;;;18.58;58.64
61337;BME280;47212;41.326;2.104;2024-02-21T12:51:22;102260.50;;;18.41;58.97
61337;BME280;47212;41.326;2.104;2024-02-21T12:56:32;102242.03;;;18.11;58.71
61337;BME280;47212;41.326;2.104;2024-02-21T13:01:41;102243.41;;;17.93;58.78
61337;BME280;47212;41.326;2.104;2024-02-21T13:06:48;102224.69;;;17.80;57.93
61337;BME280;47212;41.326;2.104;2024-02-21T13:11:55;102231.78;;;17.50;58.62
61337;BME280;47212;41.326;2.104;2024-02-21T13:17:07;102215.75;;;17.32;59.36
61337;BME280;47212;41.326;2.104;2024-02-21T13:22:16;102216.84;;;17.21;61.00
61337;BME280;47212;41.326;2.104;2024-02-21T13:27:21;102196.16;;;17.08;62.11
61337;BME280;47212;41.326;2.104;2024-02-21T13:32:24;102182.59;;;16.81;63.44
61337;BME280;47212;41.326;2.104;2024-02-21T13:37:34;102172.47;;;16.97;63.79
61337;BME280;47212;41.326;2.104;2024-02-21T13:42:46;102173.25;;;16.87;64.26
61337;BME280;47212;41.326;2.104;2024-02-21T13:48:02;102164.63;;;16.64;65.76
61337;BME280;47212;41.326;2.104;2024-02-21T13:53:22;102159.22;;;16.32;67.30
61337;BME280;47212;41.326;2.104;2024-02-21T13:58:28;102151.75;;;16.22;68.37
61337;BME280;47212;41.326;2.104;2024-02-21T14:03:38;102143.06;;;15.98;70.67
61337;BME280;47212;41.326;2.104;2024-02-21T14:08:49;102140.41;;;15.71;72.17
61337;BME280;47212;41.326;2.104;2024-02-21T14:14:05;102131.28;;;15.60;71.93
61337;BME280;47212;41.326;2.104;2024-02-21T14:19:12;102126.47;;;15.51;73.33
61337;BME280;47212;41.326;2.104;2024-02-21T14:24:20;102127.94;;;15.32;73.92
61337;BME280;47212;41.326;2.104;2024-02-21T14:29:27;102109.13;;;15.13;75.16
61337;BME280;47212;41.326;2.104;2024-02-21T14:34:42;102106.28;;;15.03;76.44
61337;BME280;47212;41.326;2.104;2024-02-21T14:39:50;102096.91;;;14.99;75.94
61337;BME280;47212;41.326;2.104;2024-02-21T14:45:07;102092.34;;;15.10;75.79
61337;BME280;47212;41.326;2.104;2024-02-21T14:50:16;102096.50;;;15.12;76.84
61337;BME280;47212;41.326;2.104;2024-02-21T14:55:23;102097.53;;;15.06;77.37
61337;BME280;47212;41.326;2.104;2024-02-21T15:00:38;102099.72;;;15.04;77.29
61337;BME280;47212;41.326;2.104;2024-02-21T15:05:52;102098.56;;;15.00;77.86
61337;BME280;47212;41.326;2.104;2024-02-21T15:11:02;102090.38;;;15.05;78.18
61337;BME280;47212;41.326;2.104;2024-02-21T15:16:09;102096.19;;;15.09;77.63
61337;BME280;47212;41.326;2.104;2024-02-21T15:21:18;102094.06;;;15.16;77.59
61337;BME280;47212;41.326;2.104;2024-02-21T15:26:37;102090.19;;;15.12;79.38
61337;BME280;47212;41.326;2.104;2024-02-21T15:31:51;102083.56;;;15.08;79.52
61337;BME280;47212;41.326;2.104;2024-02-21T15:37:16;102083.03;;;15.11;81.57
61337;BME280;47212;41.326;2.104;2024-02-21T15:42:31;102085.44;;;15.02;83.07
61337;BME280;47212;41.326;2.104;2024-02-21T15:47:37;102077.41;;;14.95;80.99
61337;BME280;47212;41.326;2.104;2024-02-21T15:52:42;102060.09;;;14.90;81.52
61337;BME280;47212;41.326;2.104;2024-02-21T15:57:48;102069.91;;;14.86;81.41
61337;BME280;47212;41.326;2.104;2024-02-21T16:02:55;102061.69;;;14.86;81.95
61337;BME280;47212;41.326;2.104;2024-02-21T16:08:08;102071.56;;;14.87;82.38
61337;BME280;47212;41.326;2.104;2024-02-21T16:13:24;102069.09;;;14.85;82.51
61337;BME280;47212;41.326;2.104;2024-02-21T16:18:30;102077.56;;;14.84;81.46
61337;BME280;47212;41.326;2.104;2024-02-21T16:23:41;102077.00;;;14.82;81.46
61337;BME280;47212;41.326;2.104;2024-02-21T16:28:47;102080.31;;;14.84;81.82
61337;BME280;47212;41.326;2.104;2024-02-21T16:33:52;102083.50;;;14.76;81.11
61337;BME280;47212;41.326;2.104;2024-02-21T16:39:01;102082.28;;;14.66;81.88
61337;BME280;47212;41.326;2.104;2024-02-21T16:44:09;102079.50;;;14.61;82.46
61337;BME280;47212;41.326;2.104;2024-02-21T16:49:18;102065.72;;;14.56;83.06
61337;BME280;47212;41.326;2.104;2024-02-21T16:54:25;102061.28;;;14.50;82.89
61337;BME280;47212;41.326;2.104;2024-02-21T16:59:31;102049.22;;;14.51;83.11
61337;BME280;47212;41.326;2.104;2024-02-21T17:04:38;102058.72;;;14.44;83.47
61337;BME280;47212;41.326;2.104;2024-02-21T17:09:48;102063.56;;;14.37;84.20
61337;BME280;47212;41.326;2.104;2024-02-21T17:14:58;102073.69;;;14.36;84.47
61337;BME280;47212;41.326;2.104;2024-02-21T17:20:06;102063.81;;;14.35;84.93
61337;BME280;47212;41.326;2.104;2024-02-21T17:25:14;102067.63;;;14.34;85.34
61337;BME280;47212;41.326;2.104;2024-02-21T17:30:20;102068.13;;;14.31;85.49
61337;BME280;47212;41.326;2.104;2024-02-21T17:35:53;102063.16;;;14.28;85.90
61337;BME280;47212;41.326;2.104;2024-02-21T17:41:05;102070.81;;;14.26;85.84
61337;BME280;47212;41.326;2.104;2024-02-21T17:46:14;102076.28;;;14.26;86.01
61337;BME280;47212;41.326;2.104;2024-02-21T17:51:20;102064.50;;;14.25;86.02
61337;BME280;47212;41.326;2.104;2024-02-21T17:56:37;102064.75;;;14.24;85.94
61337;BME280;47212;41.326;2.104;2024-02-21T18:01:43;102054.06;;;14.22;85.74
61337;BME280;47212;41.326;2.104;2024-02-21T18:06:53;102067.19;;;14.20;85.85
61337;BME280;47212;41.326;2.104;2024-02-21T18:12:10;102070.75;;;14.21;86.03
61337;BME280;47212;41.326;2.104;2024-02-21T18:17:20;102060.38;;;14.23;86.06
61337;BME280;47212;41.326;2.104;2024-02-21T18:22:28;102066.94;;;14.22;86.00
61337;BME280;47212;41.326;2.104;2024-02-21T18:27:36;102054.31;;;14.21;86.11
61337;BME280;47212;41.326;2.104;2024-02-21T18:32:44;102044.19;;;14.21;86.69
61337;BME280;47212;41.326;2.104;2024-02-21T18:38:00;102044.44;;;14.20;86.38
61337;BME280;47212;41.326;2.104;2024-02-21T18:43:18;102035.66;;;14.18;85.56
61337;BME280;47212;41.326;2.104;2024-02-21T18:48:26;102040.56;;;14.16;85.31
61337;BME280;47212;41.326;2.104;2024-02-21T18:53:37;102044.97;;;14.17;84.98
61337;BME280;47212;41.326;2.104;2024-02-21T18:58:41;102042.28;;;14.22;85.05
61337;BME280;47212;41.326;2.104;2024-02-21T19:03:48;102034.91;;;14.22;85.12
61337;BME280;47212;41.326;2.104;2024-02-21T19:08:57;102037.88;;;14.21;85.18
61337;BME280;47212;41.326;2.104;2024-02-21T19:14:16;102040.13;;;14.24;84.63
61337;BME280;47212;41.326;2.104;2024-02-21T19:19:23;102029.41;;;14.22;84.73
61337;BME280;47212;41.326;2.104;2024-02-21T19:24:48;102017.06;;;14.20;84.59
61337;BME280;47212;41.326;2.104;2024-02-21T19:30:12;102020.56;;;14.15;84.70
61337;BME280;47212;41.326;2.104;2024-02-21T19:35:17;102025.72;;;14.12;84.72
61337;BME280;47212;41.326;2.104;2024-02-21T19:40:24;102036.09;;;14.10;85.07
61337;BME280;47212;41.326;2.104;2024-02-21T19:45:36;102036.09;;;14.10;84.94
61337;BME280;47212;41.326;2.104;2024-02-21T19:50:47;102044.06;;;14.11;84.30
61337;BME280;47212;41.326;2.104;2024-02-21T19:55:55;102041.66;;;14.15;83.65
61337;BME280;47212;41.326;2.104;2024-02-21T20:01:15;102034.00;;;14.17;82.93
61337;BME280;47212;41.326;2.104;2024-02-21T20:06:31;102020.31;;;14.17;82.49
61337;BME280;47212;41.326;2.104;2024-02-21T20:11:37;102010.13;;;14.12;82.47
61337;BME280;47212;41.326;2.104;2024-02-21T20:31:29;102004.19;;;14.42;82.42
61337;BME280;47212;41.326;2.104;2024-02-21T20:36:33;102001.38;;;14.37;82.28
61337;BME280;47212;41.326;2.104;2024-02-21T20:41:36;102002.41;;;14.31;82.52
61337;BME280;47212;41.326;2.104;2024-02-21T20:46:39;102006.16;;;14.25;82.46
61337;BME280;47212;41.326;2.104;2024-02-21T20:51:41;101998.97;;;14.19;82.52
61337;BME280;47212;41.326;2.104;2024-02-21T20:56:49;102021.41;;;14.16;83.61
61337;BME280;47212;41.326;2.104;2024-02-21T21:01:51;102036.16;;;14.15;82.53
61337;BME280;47212;41.326;2.104;2024-02-21T21:07:04;102040.56;;;14.16;82.26
61337;BME280;47212;41.326;2.104;2024-02-21T21:12:09;102039.47;;;14.17;82.16
61337;BME280;47212;41.326;2.104;2024-02-21T21:17:13;102024.72;;;14.18;81.59
61337;BME280;47212;41.326;2.104;2024-02-21T21:22:18;102009.94;;;14.19;81.74
61337;BME280;47212;41.326;2.104;2024-02-21T21:27:20;101992.66;;;14.18;82.21
61337;BME280;47212;41.326;2.104;2024-02-21T21:32:24;102038.16;;;14.19;81.40
61337;BME280;47212;41.326;2.104;2024-02-21T21:37:27;102024.19;;;14.21;81.04
61337;BME280;47212;41.326;2.104;2024-02-21T21:42:29;102020.38;;;14.22;80.57
61337;BME280;47212;41.326;2.104;2024-02-21T21:47:33;102001.72;;;14.19;79.80
61337;BME280;47212;41.326;2.104;2024-02-21T21:52:42;101989.16;;;14.23;79.54
61337;BME280;47212;41.326;2.104;2024-02-21T21:57:57;101969.44;;;14.21;78.99
61337;BME280;47212;41.326;2.104;2024-02-21T22:02:59;101969.44;;;14.21;78.75
61337;BME280;47212;41.326;2.104;2024-02-21T22:08:07;101948.34;;;14.21;78.16
61337;BME280;47212;41.326;2.104;2024-02-21T22:13:11;101930.00;;;14.22;77.95
61337;BME280;47212;41.326;2.104;2024-02-21T22:18:18;101939.03;;;14.22;78.12
61337;BME280;47212;41.326;2.104;2024-02-21T22:23:22;101922.63;;;14.22;78.20
61337;BME280;47212;41.326;2.104;2024-02-21T22:28:24;101901.22;;;14.19;78.10
61337;BME280;47212;41.326;2.104;2024-02-21T22:33:29;101888.88;;;14.17;78.45
61337;BME280;47212;41.326;2.104;2024-02-21T22:38:31;101882.00;;;14.14;79.31
61337;BME280;47212;41.326;2.104;2024-02-21T22:43:35;101886.66;;;14.14;79.65
61337;BME280;47212;41.326;2.104;2024-02-21T22:48:49;101883.91;;;14.14;81.29
61337;BME280;47212;41.326;2.104;2024-02-21T22:53:52;101903.09;;;14.14;81.24
61337;BME280;47212;41.326;2.104;2024-02-21T22:58:55;101909.38;;;14.14;81.62
61337;BME280;47212;41.326;2.104;2024-02-21T23:04:01;101872.69;;;14.15;82.28
61337;BME280;47212;41.326;2.104;2024-02-21T23:09:03;101875.69;;;14.14;82.68
61337;BME280;47212;41.326;2.104;2024-02-21T23:14:06;101855.41;;;14.10;83.23
61337;BME280;47212;41.326;2.104;2024-02-21T23:19:08;101839.75;;;14.05;83.67
61337;BME280;47212;41.326;2.104;2024-02-21T23:24:21;101846.56;;;14.02;84.39
61337;BME280;47212;41.326;2.104;2024-02-21T23:29:25;101834.78;;;14.02;84.82
61337;BME280;47212;41.326;2.104;2024-02-21T23:34:28;101833.97;;;14.01;84.88
61337;BME280;47212;41.326;2.104;2024-02-21T23:39:30;101833.97;;;14.01;85.10
61337;BME280;47212;41.326;2.104;2024-02-21T23:44:32;101830.66;;;13.99;85.07
61337;BME280;47212;41.326;2.104;2024-02-21T23:49:35;101828.50;;;14.01;85.51
61337;BME280;47212;41.326;2.104;2024-02-21T23:54:40;101836.13;;;13.99;85.88
61337;BME280;47212;41.326;2.104;2024-02-21T23:59:43;101819.72;;;13.99;85.90
